Webcam Rollhalt 06

Webcam Rollhalt 24

 

Metar - Laupheim Airfield

[Source: ADDS]
METAR
ETHL 161020Z 24006KT 6000 -SN FEW008 BKN040 M03/M05 Q1025 WHT =
TAF

Notice: Undefined index: sun in /homepages/1/d158740339/htdocs/joomla/modules/mod_wx/tmpl/default.php on line 13

Metar - Augsburg Airfield

[Source: ADDS]
METAR
EDMA 161050Z 25008KT 7000 -SN SCT027 OVC046 M02/M04 Q1025 =
EDMA 160800Z 1609/1618 26007KT 9999 OVC035 PROB30 TEMPO 1609/1612 4000 -SN
TAF
EDMA 160800Z 1609/1618 26007KT 9999 OVC035 PROB30 TEMPO 1609/1612 4000 -SN =
SR / SS: 07:04 / 15:54 UTC (Günzburg 2021-01-16)

Metar - Memmingen Airfield

[Source: ADDS]
METAR
EDJA 161050Z 23007KT 6000 OVC037 M04/M06 Q1024 =
EDJA 160800Z 1609/1618 23007KT 6000 FEW010 BKN040 TEMPO 1609/1612 4000 -SN
TAF
EDJA 160800Z 1609/1618 23007KT 6000 FEW010 BKN040 TEMPO 1609/1612 4000 -SN =

Notice: Undefined index: sun in /homepages/1/d158740339/htdocs/joomla/modules/mod_wx/tmpl/default.php on line 13

Metar - Neuburg/Donau Airfield

[Source: ADDS]
METAR
ETSN 161020Z 27011KT 9999 FEW017 BKN040 M01/M05 Q1025 BLU =
TAF

Notice: Undefined index: sun in /homepages/1/d158740339/htdocs/joomla/modules/mod_wx/tmpl/default.php on line 13

Metar - Stuttgart Airfield

[Source: ADDS]
METAR
EDDS 161050Z 24003KT 160V290 9999 FEW014 BKN028 M00/M04 Q1025 NOSIG =
AMD EDDS 160856Z 1608/1706 23004KT 9999 BKN035 TEMPO 1609/1611 4000 -SN BECMG 1623/1702 4000 -SN BKN010 TEMPO 1700/1706 2000 SN BKN004
TAF
AMD EDDS 160856Z 1608/1706 23004KT 9999 BKN035 TEMPO 1609/1611 4000 -SN BECMG 1623/1702 4000 -SN BKN010 TEMPO 1700/1706 2000 SN BKN004 =

Notice: Undefined index: sun in /homepages/1/d158740339/htdocs/joomla/modules/mod_wx/tmpl/default.php on line 13

Metar - Niederstetten Airfield

[Source: ADDS]
METAR
ETHN 161020Z AUTO 31007KT //// // ////// M03/M05 Q1025 /// =
TAF

Notice: Undefined index: sun in /homepages/1/d158740339/htdocs/joomla/modules/mod_wx/tmpl/default.php on line 13